createdAt,value
2019-03-19T00:02:30.855Z,9.13
2019-03-19T00:05:04.956Z,8.80
2019-03-19T00:07:38.661Z,8.60
2019-03-19T00:10:13.101Z,8.23
2019-03-19T00:12:46.723Z,7.73
2019-03-19T00:15:20.848Z,7.43
2019-03-19T00:17:54.662Z,11.10
2019-03-19T00:20:29.313Z,7.80
2019-03-19T00:23:02.887Z,7.30
2019-03-19T00:25:36.905Z,8.70
2019-03-19T00:28:13.315Z,9.20
2019-03-19T00:30:47.128Z,9.90
2019-03-19T00:33:22.951Z,8.00
2019-03-19T00:35:57.163Z,7.40
2019-03-19T00:38:30.774Z,7.00
2019-03-19T00:41:04.795Z,6.23
2019-03-19T00:43:38.358Z,6.20
2019-03-19T00:46:15.385Z,6.33
2019-03-19T00:48:48.855Z,6.17
2019-03-19T00:51:23.406Z,6.83
2019-03-19T00:53:58.498Z,7.37
2019-03-19T00:56:32.644Z,7.47
2019-03-19T00:59:06.510Z,7.20
2019-03-19T01:01:40.797Z,7.37
2019-03-19T01:04:16.932Z,7.90
2019-03-19T01:06:50.843Z,7.90
2019-03-19T01:09:24.384Z,7.50
2019-03-19T01:11:58.135Z,7.70
2019-03-19T01:14:34.165Z,7.50
2019-03-19T01:17:07.948Z,7.27
2019-03-19T01:19:41.915Z,6.27
2019-03-19T01:22:16.172Z,7.10
2019-03-19T01:24:52.347Z,7.00
2019-03-19T01:27:26.937Z,5.83
2019-03-19T01:30:00.519Z,6.50
2019-03-19T01:32:34.539Z,7.90
2019-03-19T01:35:08.539Z,6.57
2019-03-19T01:37:42.341Z,5.70
2019-03-19T01:40:16.153Z,5.53
2019-03-19T01:42:50.062Z,6.03
2019-03-19T01:45:23.491Z,6.50
2019-03-19T01:47:58.052Z,6.13
2019-03-19T01:50:31.896Z,6.23
2019-03-19T01:53:07.035Z,7.23
2019-03-19T01:55:42.799Z,6.80
2019-03-19T01:58:16.856Z,6.13
2019-03-19T02:00:51.235Z,6.00
2019-03-19T02:03:25.581Z,5.50
2019-03-19T02:05:59.395Z,7.23
2019-03-19T02:08:33.706Z,5.70
2019-03-19T02:11:08.590Z,6.70
2019-03-19T02:13:42.866Z,6.57
2019-03-19T02:16:16.495Z,6.47
2019-03-19T02:18:51.310Z,6.40
2019-03-19T02:21:24.986Z,7.10
2019-03-19T02:23:57.384Z,6.07
2019-03-19T02:26:30.862Z,5.77
2019-03-19T02:29:05.022Z,6.80
2019-03-19T02:31:38.474Z,6.83
2019-03-19T02:34:13.270Z,7.03
2019-03-19T02:36:46.616Z,5.87
2019-03-19T02:39:19.880Z,5.33
2019-03-19T02:41:55.203Z,6.03
2019-03-19T02:44:29.093Z,5.50
2019-03-19T02:47:01.782Z,5.37
2019-03-19T02:49:37.796Z,6.40
2019-03-19T02:52:10.649Z,5.57
2019-03-19T02:54:44.051Z,5.77
2019-03-19T02:57:16.907Z,5.77
2019-03-19T02:59:50.256Z,5.23
2019-03-19T03:02:23.411Z,6.03
2019-03-19T03:04:56.525Z,5.27
2019-03-19T03:07:31.492Z,6.10
2019-03-19T03:10:05.082Z,5.60
2019-03-19T03:12:38.484Z,5.80
2019-03-19T03:15:12.250Z,6.30
2019-03-19T03:17:46.563Z,6.30
2019-03-19T03:20:20.808Z,6.03
2019-03-19T03:22:54.139Z,6.03
2019-03-19T03:25:27.942Z,5.90
2019-03-19T03:28:01.438Z,6.20
2019-03-19T03:30:34.899Z,6.33
2019-03-19T03:33:08.448Z,6.27
2019-03-19T03:35:42.295Z,6.47
2019-03-19T03:38:15.899Z,6.57
2019-03-19T03:40:49.982Z,5.80
2019-03-19T03:43:25.936Z,5.53
2019-03-19T03:45:59.707Z,5.30
2019-03-19T03:48:33.398Z,5.20
2019-03-19T03:51:09.893Z,5.10
2019-03-19T03:53:43.405Z,5.70
2019-03-19T03:56:18.007Z,5.83
2019-03-19T03:59:00.629Z,6.07
2019-03-19T04:01:30.965Z,8.33
2019-03-19T04:04:05.227Z,6.37
2019-03-19T04:06:39.215Z,8.83
2019-03-19T04:09:12.835Z,8.20
2019-03-19T04:11:52.909Z,10.77
2019-03-19T04:14:26.466Z,7.60
2019-03-19T04:17:00.346Z,6.33
2019-03-19T04:19:33.933Z,5.60
2019-03-19T04:22:07.598Z,5.77
2019-03-19T04:24:43.244Z,7.87
2019-03-19T04:27:17.568Z,7.20
2019-03-19T04:29:51.353Z,5.57
2019-03-19T04:32:25.430Z,5.93
2019-03-19T04:34:59.395Z,6.00
2019-03-19T04:37:33.327Z,6.73
2019-03-19T04:40:09.433Z,5.87
2019-03-19T04:42:45.920Z,5.83
2019-03-19T04:45:19.553Z,6.33
2019-03-19T04:47:53.752Z,10.57
2019-03-19T04:50:27.114Z,7.73
2019-03-19T04:53:03.535Z,7.73
2019-03-19T04:55:37.205Z,7.97
2019-03-19T04:58:11.418Z,7.70
2019-03-19T05:00:45.459Z,8.33
2019-03-19T05:03:19.338Z,6.80
2019-03-19T05:05:52.790Z,7.53
2019-03-19T05:08:26.679Z,6.63
2019-03-19T05:11:00.228Z,6.73
2019-03-19T05:13:34.873Z,7.27
2019-03-19T05:16:08.932Z,14.33
2019-03-19T05:18:44.328Z,9.03
2019-03-19T05:21:18.318Z,6.63
2019-03-19T05:23:52.887Z,6.27
2019-03-19T05:26:26.659Z,7.77
2019-03-19T05:29:00.982Z,6.27
2019-03-19T05:31:34.666Z,5.57
2019-03-19T05:34:10.381Z,7.87
2019-03-19T05:36:44.286Z,7.17
2019-03-19T05:39:18.199Z,15.10
2019-03-19T05:41:55.016Z,10.73
2019-03-19T05:44:29.336Z,8.37
2019-03-19T05:47:03.533Z,7.87
2019-03-19T05:49:37.808Z,8.07
2019-03-19T05:52:11.501Z,9.03
2019-03-19T05:54:48.753Z,8.40
2019-03-19T05:57:24.003Z,7.87
2019-03-19T05:59:58.908Z,8.87
2019-03-19T06:02:32.877Z,8.07
2019-03-19T06:05:07.886Z,8.47
2019-03-19T06:07:42.629Z,9.83
2019-03-19T06:10:17.049Z,10.10
2019-03-19T06:12:50.716Z,10.73
2019-03-19T06:15:25.900Z,9.13
2019-03-19T06:17:59.792Z,12.07
2019-03-19T06:20:33.788Z,10.23
2019-03-19T06:23:07.976Z,11.07
2019-03-19T06:25:42.132Z,13.43
2019-03-19T06:28:18.895Z,12.43
2019-03-19T06:30:52.442Z,12.33
2019-03-19T06:33:26.162Z,13.10
2019-03-19T06:36:00.311Z,10.83
2019-03-19T06:38:34.983Z,10.03
2019-03-19T06:41:10.007Z,9.77
2019-03-19T06:43:44.223Z,12.70
2019-03-19T06:46:18.859Z,9.57
2019-03-19T06:48:53.104Z,12.30
2019-03-19T06:51:27.520Z,12.80
2019-03-19T06:54:01.413Z,11.10
2019-03-19T06:56:37.990Z,13.20
2019-03-19T06:59:11.595Z,11.20
2019-03-19T07:01:46.208Z,14.50
2019-03-19T07:04:20.877Z,13.27
2019-03-19T07:06:55.294Z,13.37
2019-03-19T07:09:30.363Z,13.93
2019-03-19T07:12:05.392Z,10.17
2019-03-19T07:14:40.056Z,10.37
2019-03-19T07:17:14.540Z,12.77
2019-03-19T07:19:49.151Z,12.53
2019-03-19T07:22:26.884Z,11.33
2019-03-19T07:25:00.478Z,9.73
2019-03-19T07:27:35.454Z,11.83
2019-03-19T07:30:13.255Z,8.57
2019-03-19T07:32:49.053Z,10.50
2019-03-19T07:35:23.447Z,11.47
2019-03-19T07:37:57.680Z,13.50
2019-03-19T07:40:32.455Z,11.20
2019-03-19T07:43:09.021Z,12.80
2019-03-19T07:45:42.749Z,12.53
2019-03-19T07:48:16.720Z,12.33
2019-03-19T07:50:50.467Z,11.87
2019-03-19T07:53:24.953Z,7.00
2019-03-19T07:55:59.087Z,12.97
2019-03-19T07:58:45.207Z,9.80
2019-03-19T08:01:12.978Z,8.60
2019-03-19T08:03:48.612Z,7.20
2019-03-19T08:06:23.951Z,10.90
2019-03-19T08:09:00.621Z,11.60
2019-03-19T08:11:35.618Z,7.03
2019-03-19T08:14:10.582Z,9.93
2019-03-19T08:16:47.215Z,8.90
2019-03-19T08:19:23.497Z,6.90
2019-03-19T08:21:57.029Z,10.47
2019-03-19T08:24:32.213Z,7.40
2019-03-19T08:27:06.002Z,8.03
2019-03-19T08:29:43.443Z,8.43
2019-03-19T08:32:18.376Z,5.60
2019-03-19T08:34:52.171Z,5.77
2019-03-19T08:37:26.996Z,5.40
2019-03-19T08:40:02.740Z,5.10
2019-03-19T08:42:40.817Z,6.00
2019-03-19T08:45:15.533Z,6.87
2019-03-19T08:47:49.785Z,6.93
2019-03-19T08:50:24.837Z,8.20
2019-03-19T08:52:59.618Z,5.73
2019-03-19T08:55:34.393Z,6.07
2019-03-19T08:58:08.699Z,7.10
2019-03-19T09:00:44.992Z,7.30
2019-03-19T09:03:19.200Z,7.60
2019-03-19T09:05:54.336Z,7.47
2019-03-19T09:08:32.483Z,7.03
2019-03-19T09:11:06.563Z,7.17
2019-03-19T09:13:40.599Z,7.63
2019-03-19T09:16:15.065Z,7.60
2019-03-19T09:18:51.335Z,6.20
2019-03-19T09:21:26.134Z,7.23
2019-03-19T09:24:00.004Z,5.77
2019-03-19T09:26:35.554Z,7.50
2019-03-19T09:29:16.835Z,6.53
2019-03-19T09:31:46.245Z,7.10
2019-03-19T09:34:22.139Z,8.10
2019-03-19T09:36:59.787Z,6.50
2019-03-19T09:39:36.663Z,8.67
2019-03-19T09:42:13.280Z,6.87
2019-03-19T09:44:58.005Z,7.30
2019-03-19T09:47:23.395Z,7.57
2019-03-19T09:49:56.927Z,6.93
2019-03-19T09:52:31.226Z,6.17
2019-03-19T09:55:05.994Z,8.90
2019-03-19T09:57:41.325Z,11.20
2019-03-19T10:00:19.151Z,12.40
2019-03-19T10:03:00.493Z,10.63
2019-03-19T10:05:36.452Z,11.17
2019-03-19T10:08:11.101Z,7.67
2019-03-19T10:10:52.252Z,4.90
2019-03-19T10:13:25.625Z,4.87
2019-03-19T10:16:00.067Z,6.47
2019-03-19T10:18:35.622Z,5.37
2019-03-19T10:21:11.630Z,4.70
2019-03-19T10:26:40.738Z,4.37
2019-03-19T10:29:15.960Z,4.43
2019-03-19T10:31:49.546Z,3.30
2019-03-19T10:34:24.058Z,3.70
2019-03-19T10:36:58.239Z,3.97
2019-03-19T10:39:33.450Z,4.10
2019-03-19T10:42:07.257Z,3.83
2019-03-19T10:44:42.813Z,5.30
2019-03-19T10:47:16.979Z,5.87
2019-03-19T10:49:52.954Z,5.80
2019-03-19T10:52:28.320Z,5.23
2019-03-19T10:55:02.011Z,5.53
2019-03-19T10:57:35.769Z,6.10
2019-03-19T11:00:19.806Z,4.70
2019-03-19T11:02:58.230Z,4.93
2019-03-19T11:05:32.456Z,4.43
2019-03-19T11:08:06.069Z,4.10
2019-03-19T11:10:42.258Z,5.57
2019-03-19T11:13:17.880Z,8.67
2019-03-19T11:15:52.486Z,5.00
2019-03-19T11:18:27.270Z,5.83
2019-03-19T11:21:02.405Z,4.93
2019-03-19T11:23:37.248Z,4.60
2019-03-19T11:26:11.857Z,6.00
2019-03-19T11:28:48.186Z,5.27
2019-03-19T11:31:25.409Z,5.83
2019-03-19T11:34:02.562Z,5.40
2019-03-19T11:36:41.304Z,4.77
2019-03-19T11:39:17.036Z,6.30
2019-03-19T11:41:56.283Z,6.07
2019-03-19T11:44:31.087Z,10.00
2019-03-19T11:47:05.812Z,8.20
2019-03-19T11:49:45.871Z,5.60
2019-03-19T11:52:25.003Z,5.30
2019-03-19T11:54:59.993Z,5.83
2019-03-19T11:57:35.860Z,5.20
2019-03-19T12:00:15.667Z,4.80
2019-03-19T12:02:54.125Z,5.17
2019-03-19T12:05:33.572Z,15.17
2019-03-19T12:08:09.228Z,5.83
2019-03-19T12:10:43.886Z,6.47
2019-03-19T12:13:18.932Z,4.90
2019-03-19T12:15:56.942Z,4.90
2019-03-19T12:18:32.828Z,5.13
2019-03-19T12:21:09.459Z,5.73
2019-03-19T12:23:44.174Z,4.90
2019-03-19T12:26:20.419Z,4.80
2019-03-19T12:28:57.439Z,6.63
2019-03-19T12:31:32.707Z,5.97
2019-03-19T12:34:07.872Z,9.47
2019-03-19T12:36:47.321Z,5.17
2019-03-19T12:39:23.035Z,5.47
2019-03-19T12:41:59.821Z,6.03
2019-03-19T12:44:35.633Z,5.57
2019-03-19T12:47:10.193Z,5.93
2019-03-19T12:49:48.220Z,5.60
2019-03-19T12:52:23.207Z,4.93
2019-03-19T12:54:57.739Z,5.20
2019-03-19T12:57:35.699Z,4.53
2019-03-19T13:00:17.758Z,6.13
2019-03-19T13:02:52.184Z,5.40
2019-03-19T13:05:28.255Z,4.83
2019-03-19T13:08:06.871Z,4.43
2019-03-19T13:10:41.142Z,4.47
2019-03-19T13:13:15.441Z,5.43
2019-03-19T13:15:49.987Z,4.10
2019-03-19T13:18:24.803Z,4.13
2019-03-19T13:20:58.590Z,4.10
2019-03-19T13:23:34.927Z,4.17
2019-03-19T13:26:10.063Z,4.87
2019-03-19T13:28:48.182Z,4.30
2019-03-19T13:31:23.063Z,4.47
2019-03-19T13:33:57.212Z,5.07
2019-03-19T13:36:32.235Z,4.80
2019-03-19T13:39:12.105Z,4.90
2019-03-19T13:41:47.332Z,5.87
2019-03-19T13:44:27.919Z,5.07
2019-03-19T13:47:06.510Z,5.13
2019-03-19T13:49:43.316Z,5.37
2019-03-19T13:52:17.847Z,5.53
2019-03-19T13:54:51.981Z,4.90
2019-03-19T13:57:26.437Z,5.40
2019-03-19T14:00:00.474Z,5.00
2019-03-19T14:02:36.243Z,5.90
2019-03-19T14:05:11.921Z,6.27
2019-03-19T14:07:47.085Z,5.67
2019-03-19T14:10:24.837Z,4.53
2019-03-19T14:12:59.277Z,4.37
2019-03-19T14:15:34.170Z,5.40
2019-03-19T14:18:08.989Z,6.10
2019-03-19T14:20:44.469Z,4.27
2019-03-19T14:23:18.587Z,4.33
2019-03-19T14:25:52.801Z,5.40
2019-03-19T14:28:27.549Z,5.23
2019-03-19T14:31:08.674Z,6.00
2019-03-19T14:33:39.177Z,4.13
2019-03-19T14:36:15.334Z,4.40
2019-03-19T14:38:51.332Z,4.13
2019-03-19T14:41:25.527Z,4.47
2019-03-19T14:44:05.358Z,5.30
2019-03-19T14:46:40.359Z,4.70
2019-03-19T14:49:17.788Z,4.93
2019-03-19T14:51:53.047Z,3.87
2019-03-19T14:54:27.432Z,4.40
2019-03-19T14:57:04.568Z,4.77
2019-03-19T14:59:42.078Z,3.93
2019-03-19T15:02:16.263Z,3.80
2019-03-19T15:04:52.636Z,3.80
2019-03-19T15:07:30.233Z,4.00
2019-03-19T15:10:05.161Z,6.17
2019-03-19T15:12:40.638Z,4.23
2019-03-19T15:15:20.073Z,5.17
2019-03-19T15:17:55.052Z,4.07
2019-03-19T15:20:31.348Z,3.47
2019-03-19T15:23:06.581Z,4.13
2019-03-19T15:25:41.109Z,3.70
2019-03-19T15:28:18.946Z,3.87
2019-03-19T15:30:54.052Z,7.30
2019-03-19T15:33:28.632Z,5.37
2019-03-19T15:36:04.461Z,4.03
2019-03-19T15:38:41.404Z,3.50
2019-03-19T15:41:17.778Z,3.17
2019-03-19T15:43:54.857Z,3.80
2019-03-19T15:46:29.517Z,4.03
2019-03-19T15:49:03.922Z,4.10
2019-03-19T15:51:38.888Z,3.60
2019-03-19T15:54:13.508Z,5.20
2019-03-19T15:56:52.677Z,5.90
2019-03-19T15:59:27.349Z,4.60
2019-03-19T16:02:01.571Z,4.23
2019-03-19T16:04:36.564Z,4.27
2019-03-19T16:07:10.604Z,5.70
2019-03-19T16:09:45.983Z,5.00
2019-03-19T16:12:21.345Z,3.50
2019-03-19T16:15:00.403Z,4.53
2019-03-19T16:17:34.646Z,4.77
2019-03-19T16:20:11.601Z,3.43
2019-03-19T16:22:47.602Z,3.50
2019-03-19T16:25:26.027Z,3.77
2019-03-19T16:28:03.281Z,5.20
2019-03-19T16:30:37.920Z,4.53
2019-03-19T16:33:14.993Z,3.30
2019-03-19T16:35:51.133Z,3.77
2019-03-19T16:38:24.609Z,4.70
2019-03-19T16:40:58.779Z,4.90
2019-03-19T16:43:33.517Z,4.50
2019-03-19T16:46:07.714Z,5.10
2019-03-19T16:48:41.888Z,5.30
2019-03-19T16:51:16.415Z,4.67
2019-03-19T16:53:51.063Z,5.27
2019-03-19T16:56:26.431Z,7.27
2019-03-19T16:59:02.438Z,7.07
2019-03-19T17:01:37.375Z,5.70
2019-03-19T17:04:11.787Z,6.97
2019-03-19T17:06:46.383Z,6.97
2019-03-19T17:09:22.194Z,7.47
2019-03-19T17:11:55.699Z,8.97
2019-03-19T17:14:30.039Z,7.87
2019-03-19T17:17:04.723Z,8.63
2019-03-19T17:19:38.181Z,7.67
2019-03-19T17:22:12.537Z,9.17
2019-03-19T17:24:48.991Z,11.20
2019-03-19T17:27:23.071Z,9.07
2019-03-19T17:29:56.934Z,8.00
2019-03-19T17:32:31.169Z,8.60
2019-03-19T17:35:05.439Z,9.53
2019-03-19T17:37:39.146Z,8.60
2019-03-19T17:40:13.775Z,11.03
2019-03-19T17:42:48.871Z,11.27
2019-03-19T17:45:22.816Z,9.90
2019-03-19T17:48:02.141Z,7.77
2019-03-19T17:50:35.359Z,8.53
2019-03-19T17:53:10.935Z,9.33
2019-03-19T17:55:47.777Z,8.17
2019-03-19T17:58:24.443Z,9.40
2019-03-19T18:00:58.873Z,8.03
2019-03-19T18:03:33.999Z,7.63
2019-03-19T18:06:11.015Z,8.20
2019-03-19T18:08:45.831Z,7.97
2019-03-19T18:11:21.025Z,7.80
2019-03-19T18:13:54.746Z,8.53
2019-03-19T18:16:31.171Z,7.70
2019-03-19T18:19:08.536Z,7.90
2019-03-19T18:21:44.975Z,12.27
2019-03-19T18:24:22.874Z,8.97
2019-03-19T18:26:59.785Z,9.27
2019-03-19T18:29:34.237Z,8.37
2019-03-19T18:32:11.133Z,8.60
2019-03-19T18:34:46.056Z,8.47
2019-03-19T18:37:20.627Z,8.67
2019-03-19T18:39:55.986Z,7.40
2019-03-19T18:42:30.854Z,8.50
2019-03-19T18:45:05.243Z,7.83
2019-03-19T18:47:41.233Z,9.03
2019-03-19T18:50:19.380Z,9.20
2019-03-19T18:52:55.280Z,10.73
2019-03-19T18:55:28.641Z,10.63
2019-03-19T18:58:03.035Z,9.97
2019-03-19T19:00:38.283Z,8.40
2019-03-19T19:03:13.488Z,10.77
2019-03-19T19:05:49.811Z,14.23
2019-03-19T19:08:24.494Z,8.23
2019-03-19T19:11:02.483Z,8.43
2019-03-19T19:13:36.231Z,11.67
2019-03-19T19:16:13.571Z,13.87
2019-03-19T19:18:48.395Z,13.47
2019-03-19T19:21:24.414Z,10.20
2019-03-19T19:23:58.928Z,10.07
2019-03-19T19:26:33.001Z,10.03
2019-03-19T19:29:10.013Z,11.60
2019-03-19T19:31:46.218Z,13.60
2019-03-19T19:34:22.751Z,15.57
2019-03-19T19:37:01.294Z,14.40
2019-03-19T19:39:36.202Z,14.90
2019-03-19T19:42:10.341Z,14.43
2019-03-19T19:44:46.492Z,14.13
2019-03-19T19:47:23.495Z,14.60
2019-03-19T19:49:58.233Z,12.40
2019-03-19T19:52:32.863Z,13.67
2019-03-19T19:55:06.646Z,12.43
2019-03-19T19:57:42.765Z,13.47
2019-03-19T20:00:18.421Z,11.63
2019-03-19T20:02:53.465Z,17.87
2019-03-19T20:05:27.735Z,14.00
2019-03-19T20:08:05.528Z,14.83
2019-03-19T20:10:39.816Z,12.93
2019-03-19T20:13:13.836Z,16.27
2019-03-19T20:15:49.008Z,16.47
2019-03-19T20:18:23.995Z,15.80
2019-03-19T20:21:00.122Z,13.33
2019-03-19T20:23:37.965Z,19.33
2019-03-19T20:26:13.446Z,17.77
2019-03-19T20:28:48.712Z,22.27
2019-03-19T20:31:22.953Z,20.60
2019-03-19T20:33:57.972Z,18.27
2019-03-19T20:36:33.278Z,18.43
2019-03-19T20:39:09.497Z,20.47
2019-03-19T20:41:46.919Z,20.67
2019-03-19T20:44:21.283Z,19.87
2019-03-19T20:46:55.187Z,20.20
2019-03-19T20:49:29.832Z,20.53
2019-03-19T20:52:03.604Z,20.67
2019-03-19T20:54:44.678Z,19.77
2019-03-19T20:57:18.737Z,22.87
2019-03-19T20:59:52.701Z,21.80
2019-03-19T21:02:27.661Z,20.27
2019-03-19T21:05:02.216Z,21.67
2019-03-19T21:07:36.825Z,21.23
2019-03-19T21:10:13.279Z,20.77
2019-03-19T21:12:48.724Z,19.07
2019-03-19T21:15:24.794Z,19.27
2019-03-19T21:18:00.308Z,19.33
2019-03-19T21:20:34.662Z,18.27
2019-03-19T21:23:09.305Z,19.77
2019-03-19T21:25:47.197Z,19.37
2019-03-19T21:28:21.160Z,17.90
2019-03-19T21:30:56.049Z,20.50
2019-03-19T21:33:32.862Z,18.20
2019-03-19T21:36:07.436Z,18.90
2019-03-19T21:38:49.565Z,18.73
2019-03-19T21:41:24.717Z,18.03
2019-03-19T21:43:59.355Z,18.07
2019-03-19T21:46:34.135Z,17.80
2019-03-19T21:49:09.464Z,19.37
2019-03-19T21:51:43.226Z,18.43
2019-03-19T21:54:17.152Z,16.73
2019-03-19T21:56:51.268Z,18.90
2019-03-19T21:59:25.230Z,19.60
2019-03-19T22:01:59.517Z,17.37
2019-03-19T22:04:33.986Z,16.70
2019-03-19T22:07:08.259Z,16.70
2019-03-19T22:09:41.892Z,17.47
2019-03-19T22:12:15.732Z,15.43
2019-03-19T22:14:50.059Z,18.67
2019-03-19T22:17:23.808Z,15.10
2019-03-19T22:19:58.023Z,17.60
2019-03-19T22:22:33.256Z,16.90
2019-03-19T22:25:08.280Z,18.23
2019-03-19T22:27:45.854Z,15.90
2019-03-19T22:30:19.833Z,15.97
2019-03-19T22:32:53.878Z,15.83
2019-03-19T22:35:28.290Z,16.70
2019-03-19T22:38:02.879Z,18.80
2019-03-19T22:40:36.843Z,16.20
2019-03-19T22:43:10.716Z,16.73
2019-03-19T22:45:44.874Z,15.00
2019-03-19T22:48:18.907Z,16.90
2019-03-19T22:50:52.996Z,15.83
2019-03-19T22:53:26.971Z,15.90
2019-03-19T22:56:01.233Z,15.63
2019-03-19T22:58:35.858Z,15.20
2019-03-19T23:01:09.984Z,15.77
2019-03-19T23:03:45.351Z,15.77
2019-03-19T23:06:19.407Z,14.83
2019-03-19T23:08:54.440Z,14.63
2019-03-19T23:11:28.075Z,17.43
2019-03-19T23:14:03.213Z,14.80
2019-03-19T23:16:37.386Z,15.37
2019-03-19T23:19:11.130Z,14.20
2019-03-19T23:21:44.966Z,13.20
2019-03-19T23:24:20.985Z,16.30
2019-03-19T23:26:55.406Z,14.43
2019-03-19T23:29:32.133Z,15.70
2019-03-19T23:32:06.038Z,14.60
2019-03-19T23:34:43.499Z,16.80
2019-03-19T23:37:17.824Z,16.07
2019-03-19T23:39:51.786Z,14.87
2019-03-19T23:42:25.567Z,13.67
2019-03-19T23:45:01.375Z,16.03
2019-03-19T23:47:35.537Z,15.67
2019-03-19T23:50:11.073Z,15.70
2019-03-19T23:52:45.410Z,14.97
2019-03-19T23:55:19.695Z,14.40
2019-03-19T23:57:53.583Z,14.23
